createdAt,value
2023-06-30T00:01:01.317Z,14.21
2023-06-30T00:03:28.608Z,14.17
2023-06-30T00:05:55.544Z,14.06
2023-06-30T00:08:22.539Z,14.05
2023-06-30T00:10:49.610Z,14.11
2023-06-30T00:13:16.418Z,14.01
2023-06-30T00:15:43.458Z,13.97
2023-06-30T00:18:11.692Z,13.91
2023-06-30T00:20:38.488Z,13.75
2023-06-30T00:23:07.382Z,13.81
2023-06-30T00:25:34.197Z,13.73
2023-06-30T00:28:00.930Z,13.80
2023-06-30T00:30:27.633Z,13.76
2023-06-30T00:32:54.552Z,13.79
2023-06-30T00:35:21.856Z,13.77
2023-06-30T00:37:48.608Z,13.71
2023-06-30T00:40:16.945Z,13.77
2023-06-30T00:42:43.654Z,13.63
2023-06-30T00:45:11.168Z,13.75
2023-06-30T00:47:38.073Z,13.73
2023-06-30T00:50:05.772Z,13.68
2023-06-30T00:52:33.622Z,13.70
2023-06-30T00:55:00.443Z,13.69
2023-06-30T00:57:27.390Z,13.66
2023-06-30T00:59:54.522Z,13.69
2023-06-30T01:02:24.944Z,13.56
2023-06-30T01:05:10.585Z,13.70
2023-06-30T01:07:40.623Z,13.68
2023-06-30T01:10:11.426Z,13.66
2023-06-30T01:12:39.148Z,13.68
2023-06-30T01:15:07.194Z,13.71
2023-06-30T01:17:35.471Z,13.66
2023-06-30T01:20:05.750Z,13.70
2023-06-30T01:22:41.120Z,13.68
2023-06-30T01:25:14.844Z,13.61
2023-06-30T01:27:44.113Z,13.64
2023-06-30T01:30:11.802Z,13.74
2023-06-30T01:32:39.250Z,13.71
2023-06-30T01:35:07.531Z,13.71
2023-06-30T01:37:35.423Z,13.64
2023-06-30T01:40:02.446Z,13.69
2023-06-30T01:42:29.556Z,13.68
2023-06-30T01:44:56.567Z,13.71
2023-06-30T01:47:24.219Z,13.75
2023-06-30T01:49:51.846Z,13.76
2023-06-30T01:52:19.802Z,13.88
2023-06-30T01:54:47.010Z,13.81
2023-06-30T01:57:14.030Z,13.88
2023-06-30T01:59:40.962Z,13.87
2023-06-30T02:02:11.165Z,14.00
2023-06-30T02:04:37.918Z,13.92
2023-06-30T02:07:07.882Z,14.06
2023-06-30T02:09:47.318Z,14.08
2023-06-30T02:12:15.788Z,14.04
2023-06-30T02:14:42.740Z,14.10
2023-06-30T02:17:11.479Z,14.26
2023-06-30T02:19:38.446Z,14.19
2023-06-30T02:22:07.882Z,14.31
2023-06-30T02:24:34.955Z,14.36
2023-06-30T02:27:04.912Z,14.42
2023-06-30T02:29:32.496Z,14.48
2023-06-30T02:32:00.037Z,14.48
2023-06-30T02:34:27.768Z,14.57
2023-06-30T02:36:54.552Z,14.80
2023-06-30T02:39:21.761Z,15.36
2023-06-30T02:41:49.237Z,15.39
2023-06-30T02:44:16.032Z,15.81
2023-06-30T02:46:43.251Z,16.14
2023-06-30T02:49:09.983Z,16.28
2023-06-30T02:51:37.203Z,15.87
2023-06-30T02:54:04.677Z,15.95
2023-06-30T02:56:31.878Z,15.87
2023-06-30T02:58:59.218Z,15.35
2023-06-30T03:01:26.513Z,15.48
2023-06-30T03:03:54.689Z,15.91
2023-06-30T03:06:21.742Z,15.62
2023-06-30T03:08:48.497Z,15.59
2023-06-30T03:11:15.797Z,15.35
2023-06-30T03:13:45.880Z,15.23
2023-06-30T03:16:13.945Z,15.64
2023-06-30T03:18:41.391Z,15.88
2023-06-30T03:21:08.832Z,15.76
2023-06-30T03:23:35.763Z,16.15
2023-06-30T03:26:03.137Z,16.28
2023-06-30T03:28:32.669Z,16.87
2023-06-30T03:30:59.436Z,17.18
2023-06-30T03:33:30.157Z,17.16
2023-06-30T03:36:01.021Z,17.16
2023-06-30T03:38:27.787Z,17.29
2023-06-30T03:41:03.118Z,17.49
2023-06-30T03:43:33.005Z,17.32
2023-06-30T03:45:59.859Z,16.60
2023-06-30T03:48:27.321Z,17.83
2023-06-30T03:50:54.908Z,17.24
2023-06-30T03:53:22.801Z,18.16
2023-06-30T03:55:49.701Z,18.20
2023-06-30T03:58:16.854Z,17.82
2023-06-30T04:00:43.788Z,17.58
2023-06-30T04:03:13.339Z,17.66
2023-06-30T04:05:40.265Z,18.26
2023-06-30T04:08:09.589Z,18.22
2023-06-30T04:10:36.830Z,18.12
2023-06-30T04:13:06.976Z,17.97
2023-06-30T04:15:34.025Z,17.81
2023-06-30T04:18:01.171Z,17.92
2023-06-30T04:20:29.602Z,18.22
2023-06-30T04:22:56.522Z,17.95
2023-06-30T04:25:24.156Z,18.84
2023-06-30T04:27:50.893Z,17.87
2023-06-30T04:30:18.043Z,18.70
2023-06-30T04:32:45.070Z,18.67
2023-06-30T04:35:13.625Z,19.19
2023-06-30T04:37:43.861Z,19.18
2023-06-30T04:40:14.433Z,19.13
2023-06-30T04:42:41.592Z,18.91
2023-06-30T04:45:10.605Z,19.68
2023-06-30T04:47:38.378Z,18.80
2023-06-30T04:50:06.469Z,18.65
2023-06-30T04:52:33.674Z,17.82
2023-06-30T04:55:05.876Z,17.51
2023-06-30T04:57:32.585Z,17.24
2023-06-30T05:00:03.099Z,17.09
2023-06-30T05:02:31.186Z,16.93
2023-06-30T05:04:59.592Z,17.04
2023-06-30T05:07:27.475Z,16.97
2023-06-30T05:09:54.557Z,16.88
2023-06-30T05:12:22.880Z,16.80
2023-06-30T05:14:51.209Z,16.81
2023-06-30T05:17:20.531Z,16.92
2023-06-30T05:19:49.851Z,16.97
2023-06-30T05:22:18.606Z,16.85
2023-06-30T05:24:49.439Z,16.97
2023-06-30T05:27:16.299Z,17.26
2023-06-30T05:29:43.221Z,17.13
2023-06-30T05:32:11.941Z,17.03
2023-06-30T05:34:41.175Z,17.23
2023-06-30T05:37:07.903Z,17.55
2023-06-30T05:39:38.316Z,17.27
2023-06-30T05:42:09.715Z,17.39
2023-06-30T05:44:41.902Z,17.09
2023-06-30T05:47:08.866Z,17.33
2023-06-30T05:49:38.064Z,17.51
2023-06-30T05:52:06.697Z,17.48
2023-06-30T05:54:33.692Z,17.63
2023-06-30T05:57:00.822Z,17.87
2023-06-30T05:59:29.361Z,18.13
2023-06-30T06:01:57.693Z,18.05
2023-06-30T06:04:25.722Z,18.04
2023-06-30T06:06:53.804Z,18.13
2023-06-30T06:09:21.546Z,18.15
2023-06-30T06:11:49.299Z,17.95
2023-06-30T06:14:16.895Z,18.49
2023-06-30T06:16:47.539Z,18.46
2023-06-30T06:19:16.303Z,18.50
2023-06-30T06:21:44.387Z,19.08
2023-06-30T06:24:11.490Z,19.07
2023-06-30T06:26:40.154Z,19.23
2023-06-30T06:29:07.777Z,19.07
2023-06-30T06:31:34.560Z,19.17
2023-06-30T06:34:09.497Z,18.76
2023-06-30T06:36:36.777Z,18.28
2023-06-30T06:39:03.993Z,18.72
2023-06-30T06:41:30.911Z,18.38
2023-06-30T06:44:12.190Z,18.55
2023-06-30T06:46:40.643Z,18.63
2023-06-30T06:49:08.151Z,18.69
2023-06-30T06:51:35.233Z,18.67
2023-06-30T06:54:02.818Z,18.54
2023-06-30T06:56:30.027Z,18.32
2023-06-30T06:58:56.749Z,18.67
2023-06-30T07:01:23.777Z,18.58
2023-06-30T07:03:50.760Z,18.57
2023-06-30T07:06:18.104Z,18.80
2023-06-30T07:08:45.525Z,18.89
2023-06-30T07:11:14.254Z,19.30
2023-06-30T07:13:41.877Z,19.46
2023-06-30T07:16:08.775Z,19.64
2023-06-30T07:18:35.989Z,19.61
2023-06-30T07:21:03.712Z,20.15
2023-06-30T07:23:30.748Z,19.77
2023-06-30T07:25:57.734Z,19.79
2023-06-30T07:28:24.391Z,19.97
2023-06-30T07:30:51.476Z,19.65
2023-06-30T07:33:22.414Z,19.73
2023-06-30T07:35:49.332Z,19.98
2023-06-30T07:38:18.313Z,20.34
2023-06-30T07:40:55.916Z,20.29
2023-06-30T07:43:24.910Z,20.49
2023-06-30T07:45:52.092Z,20.56
2023-06-30T07:48:19.474Z,20.35
2023-06-30T07:50:55.233Z,20.57
2023-06-30T07:53:31.671Z,20.51
2023-06-30T07:55:58.984Z,20.76
2023-06-30T07:58:27.226Z,20.65
2023-06-30T08:00:54.064Z,20.98
2023-06-30T08:03:21.933Z,20.90
2023-06-30T08:05:49.323Z,20.72
2023-06-30T08:08:17.277Z,21.06
2023-06-30T08:10:45.117Z,20.83
2023-06-30T08:13:12.016Z,20.77
2023-06-30T08:15:39.398Z,21.24
2023-06-30T08:18:10.449Z,21.47
2023-06-30T08:20:38.365Z,21.81
2023-06-30T08:23:06.042Z,21.77
2023-06-30T08:25:32.989Z,21.78
2023-06-30T08:27:59.768Z,21.12
2023-06-30T08:30:26.870Z,20.94
2023-06-30T08:32:57.144Z,21.53
2023-06-30T08:35:27.598Z,21.86
2023-06-30T08:37:54.654Z,21.61
2023-06-30T08:40:30.763Z,22.02
2023-06-30T08:43:07.063Z,22.14
2023-06-30T08:45:35.318Z,22.28
2023-06-30T08:48:07.062Z,22.30
2023-06-30T08:50:37.830Z,22.26
2023-06-30T08:53:05.620Z,22.31
2023-06-30T08:55:33.637Z,21.92
2023-06-30T08:58:06.879Z,21.92
2023-06-30T09:00:40.665Z,22.13
2023-06-30T09:03:07.783Z,22.34
2023-06-30T09:05:38.335Z,22.52
2023-06-30T09:08:11.950Z,22.81
2023-06-30T09:10:43.429Z,22.64
2023-06-30T09:13:12.078Z,22.96
2023-06-30T09:15:40.167Z,22.80
2023-06-30T09:18:06.983Z,22.58
2023-06-30T09:20:35.536Z,22.71
2023-06-30T09:23:05.357Z,23.05
2023-06-30T09:25:38.314Z,23.17
2023-06-30T09:28:15.799Z,23.19
2023-06-30T09:30:51.276Z,22.95
2023-06-30T09:33:19.101Z,23.11
2023-06-30T09:35:48.819Z,23.23
2023-06-30T09:38:18.283Z,22.76
2023-06-30T09:40:52.906Z,23.22
2023-06-30T09:43:25.705Z,23.40
2023-06-30T09:46:00.675Z,23.35
2023-06-30T09:48:36.687Z,23.36
2023-06-30T09:51:04.823Z,23.62
2023-06-30T09:53:38.682Z,23.72
2023-06-30T09:56:06.349Z,23.68
2023-06-30T09:58:34.310Z,23.76
2023-06-30T10:01:01.216Z,23.49
2023-06-30T10:03:28.488Z,23.43
2023-06-30T10:05:55.980Z,23.69
2023-06-30T10:08:24.499Z,24.10
2023-06-30T10:10:55.462Z,24.18
2023-06-30T10:13:23.142Z,23.94
2023-06-30T10:15:51.386Z,23.74
2023-06-30T10:18:19.235Z,23.80
2023-06-30T10:20:49.606Z,24.05
2023-06-30T10:23:21.662Z,23.85
2023-06-30T10:25:50.287Z,23.70
2023-06-30T10:28:18.370Z,23.61
2023-06-30T10:30:45.685Z,23.60
2023-06-30T10:33:14.516Z,24.02
2023-06-30T10:35:41.826Z,24.21
2023-06-30T10:38:09.185Z,24.19
2023-06-30T10:40:35.995Z,23.90
2023-06-30T10:43:07.402Z,24.56
2023-06-30T10:46:12.556Z,24.39
2023-06-30T10:48:40.438Z,24.26
2023-06-30T10:51:07.448Z,24.29
2023-06-30T10:53:39.192Z,24.78
2023-06-30T10:56:06.441Z,24.77
2023-06-30T10:58:41.514Z,24.48
2023-06-30T11:01:08.374Z,24.82
2023-06-30T11:03:59.425Z,24.75
2023-06-30T11:06:27.749Z,24.39
2023-06-30T11:09:04.834Z,24.47
2023-06-30T11:11:48.420Z,24.66
2023-06-30T11:14:15.614Z,24.33
2023-06-30T11:17:03.263Z,24.29
2023-06-30T11:19:29.996Z,24.48
2023-06-30T11:22:22.991Z,23.08
2023-06-30T11:24:52.706Z,22.48
2023-06-30T11:27:20.418Z,21.87
2023-06-30T11:29:50.819Z,21.83
2023-06-30T11:32:39.555Z,21.62
2023-06-30T11:35:09.190Z,21.94
2023-06-30T11:37:39.117Z,21.89
2023-06-30T11:40:07.693Z,22.41
2023-06-30T11:42:39.969Z,22.64
2023-06-30T11:45:10.220Z,22.63
2023-06-30T11:47:39.866Z,22.47
2023-06-30T11:50:09.016Z,22.87
2023-06-30T11:52:38.074Z,23.02
2023-06-30T11:55:09.799Z,23.14
2023-06-30T11:57:37.956Z,23.30
2023-06-30T12:00:13.424Z,23.51
2023-06-30T12:02:48.804Z,23.42
2023-06-30T12:05:23.521Z,23.87
2023-06-30T12:07:53.255Z,24.15
2023-06-30T12:10:21.302Z,24.26
2023-06-30T12:12:57.895Z,23.97
2023-06-30T12:15:26.006Z,24.13
2023-06-30T12:17:55.759Z,24.58
2023-06-30T12:20:30.800Z,24.16
2023-06-30T12:22:58.897Z,23.78
2023-06-30T12:25:28.643Z,23.52
2023-06-30T12:27:55.602Z,24.00
2023-06-30T12:30:24.893Z,24.00
2023-06-30T12:33:02.108Z,24.30
2023-06-30T12:35:34.770Z,24.26
2023-06-30T12:38:06.176Z,24.49
2023-06-30T12:40:33.875Z,24.00
2023-06-30T12:43:01.099Z,24.19
2023-06-30T12:45:28.401Z,24.55
2023-06-30T12:47:55.213Z,24.64
2023-06-30T12:50:22.092Z,24.89
2023-06-30T12:52:49.983Z,24.83
2023-06-30T12:55:16.858Z,24.45
2023-06-30T12:57:53.440Z,24.51
2023-06-30T13:00:20.363Z,24.53
2023-06-30T13:02:48.624Z,24.55
2023-06-30T13:05:15.882Z,24.45
2023-06-30T13:07:44.147Z,24.22
2023-06-30T13:10:11.925Z,24.48
2023-06-30T13:12:42.413Z,24.38
2023-06-30T13:15:10.417Z,24.09
2023-06-30T13:17:37.768Z,24.60
2023-06-30T13:20:09.202Z,24.53
2023-06-30T13:22:42.794Z,24.83
2023-06-30T13:25:18.206Z,24.74
2023-06-30T13:27:45.632Z,23.53
2023-06-30T13:30:12.795Z,23.21
2023-06-30T13:32:42.323Z,22.09
2023-06-30T13:35:09.400Z,21.85
2023-06-30T13:37:36.310Z,21.92
2023-06-30T13:40:03.836Z,22.02
2023-06-30T13:42:31.706Z,21.61
2023-06-30T13:44:59.830Z,22.03
2023-06-30T13:47:26.866Z,22.01
2023-06-30T13:49:53.955Z,22.05
2023-06-30T13:52:22.386Z,22.82
2023-06-30T13:54:49.837Z,22.69
2023-06-30T13:57:18.583Z,22.88
2023-06-30T13:59:45.567Z,22.62
2023-06-30T14:02:12.793Z,22.72
2023-06-30T14:04:40.660Z,23.15
2023-06-30T14:07:08.002Z,23.27
2023-06-30T14:09:35.295Z,23.36
2023-06-30T14:12:04.098Z,23.41
2023-06-30T14:14:31.316Z,23.25
2023-06-30T14:16:59.052Z,23.48
2023-06-30T14:19:26.012Z,23.44
2023-06-30T14:21:54.514Z,23.27
2023-06-30T14:24:22.138Z,23.67
2023-06-30T14:26:49.195Z,23.99
2023-06-30T14:29:17.731Z,24.38
2023-06-30T14:31:47.017Z,24.60
2023-06-30T14:34:13.994Z,24.77
2023-06-30T14:36:40.993Z,24.71
2023-06-30T14:39:08.271Z,24.38
2023-06-30T14:41:35.001Z,24.57
2023-06-30T14:44:01.907Z,24.75
2023-06-30T14:46:28.839Z,24.06
2023-06-30T14:48:56.127Z,24.31
2023-06-30T14:51:28.277Z,25.00
2023-06-30T14:53:55.106Z,25.35
2023-06-30T14:56:22.359Z,25.85
2023-06-30T14:58:51.385Z,26.03
2023-06-30T15:01:19.375Z,26.39
2023-06-30T15:03:47.438Z,26.90
2023-06-30T15:06:16.709Z,26.78
2023-06-30T15:08:46.424Z,27.38
2023-06-30T15:11:16.090Z,27.33
2023-06-30T15:13:42.805Z,28.13
2023-06-30T15:16:10.256Z,27.91
2023-06-30T15:18:38.074Z,27.43
2023-06-30T15:21:06.525Z,26.73
2023-06-30T15:23:33.401Z,26.75
2023-06-30T15:26:01.437Z,26.22
2023-06-30T15:28:28.330Z,26.58
2023-06-30T15:30:55.189Z,26.75
2023-06-30T15:33:22.111Z,27.31
2023-06-30T15:35:49.396Z,25.76
2023-06-30T15:38:16.404Z,25.16
2023-06-30T15:40:43.955Z,24.47
2023-06-30T15:43:11.281Z,24.92
2023-06-30T15:45:41.354Z,25.34
2023-06-30T15:48:15.060Z,26.23
2023-06-30T15:50:43.365Z,26.74
2023-06-30T15:53:12.012Z,26.62
2023-06-30T15:58:21.955Z,27.12
2023-06-30T16:00:48.933Z,27.02
2023-06-30T16:03:17.503Z,27.33
2023-06-30T16:05:47.436Z,27.16
2023-06-30T16:08:15.532Z,26.95
2023-06-30T16:10:43.034Z,27.02
2023-06-30T16:13:13.168Z,26.51
2023-06-30T16:15:41.142Z,26.04
2023-06-30T16:18:09.132Z,25.87
2023-06-30T16:20:36.304Z,26.30
2023-06-30T16:23:04.129Z,26.08
2023-06-30T16:25:32.314Z,26.80
2023-06-30T16:27:59.783Z,26.01
2023-06-30T16:30:31.109Z,26.78
2023-06-30T16:32:58.620Z,26.76
2023-06-30T16:35:27.144Z,25.73
2023-06-30T16:37:54.793Z,27.28
2023-06-30T16:40:22.818Z,27.15
2023-06-30T16:42:50.157Z,26.98
2023-06-30T16:45:17.886Z,26.49
2023-06-30T16:47:48.293Z,25.47
2023-06-30T16:50:16.381Z,24.64
2023-06-30T16:52:44.352Z,24.37
2023-06-30T16:55:12.462Z,24.07
2023-06-30T16:57:39.899Z,24.79
2023-06-30T17:00:10.642Z,25.02
2023-06-30T17:02:38.697Z,24.69
2023-06-30T17:05:07.008Z,24.16
2023-06-30T17:07:34.269Z,24.09
2023-06-30T17:10:01.386Z,23.80
2023-06-30T17:12:28.511Z,23.49
2023-06-30T17:14:55.665Z,22.95
2023-06-30T17:17:26.479Z,22.53
2023-06-30T17:19:53.515Z,22.12
2023-06-30T17:22:20.482Z,22.15
2023-06-30T17:24:47.298Z,22.40
2023-06-30T17:27:15.221Z,22.49
2023-06-30T17:29:42.136Z,22.88
2023-06-30T17:32:09.701Z,22.84
2023-06-30T17:34:37.313Z,22.85
2023-06-30T17:37:09.278Z,22.59
2023-06-30T17:39:38.168Z,22.41
2023-06-30T17:42:06.345Z,22.39
2023-06-30T17:44:33.080Z,22.05
2023-06-30T17:47:00.338Z,22.00
2023-06-30T17:49:31.663Z,21.83
2023-06-30T17:52:00.544Z,21.48
2023-06-30T17:54:28.210Z,21.34
2023-06-30T17:56:55.308Z,21.05
2023-06-30T17:59:23.598Z,20.96
2023-06-30T18:01:58.810Z,20.96
2023-06-30T18:04:26.283Z,20.89
2023-06-30T18:07:08.406Z,20.84
2023-06-30T18:09:41.174Z,20.76
2023-06-30T18:12:11.234Z,20.70
2023-06-30T18:14:39.178Z,20.65
2023-06-30T18:17:06.743Z,20.42
2023-06-30T18:19:34.061Z,20.43
2023-06-30T18:22:01.767Z,20.40
2023-06-30T18:24:31.480Z,20.29
2023-06-30T18:26:59.626Z,20.24
2023-06-30T18:29:28.402Z,20.02
2023-06-30T18:31:58.454Z,19.98
2023-06-30T18:34:27.788Z,20.03
2023-06-30T18:37:01.173Z,19.98
2023-06-30T18:39:28.374Z,19.98
2023-06-30T18:41:56.165Z,19.70
2023-06-30T18:44:25.315Z,19.77
2023-06-30T18:46:52.984Z,19.81
2023-06-30T18:49:23.673Z,19.57
2023-06-30T18:51:53.088Z,19.79
2023-06-30T18:54:20.541Z,19.73
2023-06-30T18:56:47.718Z,19.66
2023-06-30T18:59:16.055Z,19.56
2023-06-30T19:01:46.468Z,19.57
2023-06-30T19:04:14.878Z,18.84
2023-06-30T19:06:42.324Z,19.51
2023-06-30T19:11:58.624Z,18.85
2023-06-30T19:14:32.053Z,19.43
2023-06-30T19:16:58.778Z,19.24
2023-06-30T19:19:27.224Z,19.53
2023-06-30T19:21:56.835Z,19.31
2023-06-30T19:24:25.573Z,19.38
2023-06-30T19:26:52.826Z,19.32
2023-06-30T19:29:19.794Z,19.36
2023-06-30T19:31:47.513Z,19.43
2023-06-30T19:34:14.938Z,19.41
2023-06-30T19:36:42.176Z,19.45
2023-06-30T19:39:09.357Z,19.35
2023-06-30T19:41:36.423Z,19.43
2023-06-30T19:44:03.170Z,19.43
2023-06-30T19:46:30.718Z,19.38
2023-06-30T19:48:57.783Z,19.32
2023-06-30T19:51:25.391Z,19.33
2023-06-30T19:53:52.243Z,19.32
2023-06-30T19:56:19.075Z,19.22
2023-06-30T19:58:46.856Z,19.41
2023-06-30T20:01:18.004Z,19.43
2023-06-30T20:03:45.051Z,19.50
2023-06-30T20:06:12.047Z,19.56
2023-06-30T20:08:38.945Z,19.62
2023-06-30T20:11:05.836Z,19.61
2023-06-30T20:13:32.651Z,19.51
2023-06-30T20:15:59.663Z,19.29
2023-06-30T20:18:26.547Z,19.15
2023-06-30T20:20:53.319Z,19.24
2023-06-30T20:23:20.630Z,19.24
2023-06-30T20:25:47.971Z,19.11
2023-06-30T20:28:16.315Z,18.97
2023-06-30T20:30:43.440Z,18.85
2023-06-30T20:33:10.783Z,18.79
2023-06-30T20:35:39.001Z,18.58
2023-06-30T20:38:07.088Z,18.61
2023-06-30T20:40:37.146Z,18.53
2023-06-30T20:43:05.139Z,18.40
2023-06-30T20:45:32.408Z,18.53
2023-06-30T20:47:59.419Z,18.36
2023-06-30T20:50:26.402Z,18.42
2023-06-30T20:52:55.106Z,18.34
2023-06-30T20:55:22.154Z,18.36
2023-06-30T20:57:52.094Z,18.30
2023-06-30T21:00:19.634Z,18.32
2023-06-30T21:02:46.624Z,18.27
2023-06-30T21:05:13.890Z,18.14
2023-06-30T21:07:44.454Z,18.16
2023-06-30T21:10:12.277Z,18.17
2023-06-30T21:12:40.237Z,18.13
2023-06-30T21:15:07.913Z,18.18
2023-06-30T21:17:35.647Z,18.25
2023-06-30T21:20:04.126Z,18.24
2023-06-30T21:22:31.870Z,18.13
2023-06-30T21:24:58.660Z,18.17
2023-06-30T21:27:25.641Z,18.14
2023-06-30T21:29:52.605Z,18.14
2023-06-30T21:32:19.481Z,18.16
2023-06-30T21:34:46.442Z,18.01
2023-06-30T21:37:13.653Z,17.98
2023-06-30T21:39:40.804Z,17.88
2023-06-30T21:42:08.315Z,17.97
2023-06-30T21:44:36.416Z,17.88
2023-06-30T21:47:03.444Z,17.88
2023-06-30T21:49:30.675Z,17.97
2023-06-30T21:51:57.752Z,17.55
2023-06-30T21:54:40.599Z,17.86
2023-06-30T21:57:12.117Z,17.92
2023-06-30T21:59:39.105Z,17.88
2023-06-30T22:02:06.358Z,17.89
2023-06-30T22:04:33.914Z,17.87
2023-06-30T22:07:01.103Z,17.86
2023-06-30T22:09:33.625Z,17.86
2023-06-30T22:12:00.663Z,17.78
2023-06-30T22:14:29.279Z,17.77
2023-06-30T22:16:56.257Z,17.68
2023-06-30T22:19:23.070Z,17.72
2023-06-30T22:21:50.710Z,17.78
2023-06-30T22:24:18.220Z,17.73
2023-06-30T22:26:45.805Z,17.79
2023-06-30T22:29:12.938Z,17.75
2023-06-30T22:31:41.139Z,17.78
2023-06-30T22:34:08.022Z,17.75
2023-06-30T22:36:35.178Z,17.77
2023-06-30T22:39:02.773Z,17.66
2023-06-30T22:41:32.066Z,17.72
2023-06-30T22:43:59.335Z,17.72
2023-06-30T22:46:26.918Z,17.70
2023-06-30T22:48:54.605Z,17.61
2023-06-30T22:51:24.265Z,17.63
2023-06-30T22:53:51.725Z,17.66
2023-06-30T22:56:18.570Z,17.57
2023-06-30T22:58:45.605Z,17.54
2023-06-30T23:01:13.370Z,17.50
2023-06-30T23:03:41.416Z,17.35
2023-06-30T23:06:09.148Z,17.27
2023-06-30T23:08:36.559Z,17.22
2023-06-30T23:11:12.091Z,17.30
2023-06-30T23:13:39.004Z,17.09
2023-06-30T23:16:06.562Z,17.19
2023-06-30T23:18:39.085Z,17.26
2023-06-30T23:21:13.248Z,17.22
2023-06-30T23:23:43.748Z,17.23
2023-06-30T23:26:11.738Z,17.25
2023-06-30T23:28:49.535Z,17.09
2023-06-30T23:31:22.948Z,17.06
2023-06-30T23:33:53.554Z,17.06
2023-06-30T23:36:21.760Z,17.14
2023-06-30T23:38:49.957Z,17.09
2023-06-30T23:41:17.078Z,17.01
2023-06-30T23:43:44.420Z,16.97
2023-06-30T23:46:19.425Z,16.95
2023-06-30T23:48:46.747Z,16.96
2023-06-30T23:51:15.726Z,16.91
2023-06-30T23:53:43.002Z,16.89
2023-06-30T23:56:10.273Z,16.89
2023-06-30T23:58:37.696Z,16.90
